Time;durP1;ratioP1;P1;durP2;ratioP2;P2;SDS_P1;SDS_P2;PMS_P1;PMS_P2;Temp;Humidity;BMP_temperature;BMP_pressure;BME280_temperature;BME280_humidity;BME280_pressure;Samples;Min_cycle;Max_cycle;Signal;HPM_P1;HPM_P2
2023/12/12 00:00:21;;;;;;;21.10;14.80;;;;;;;5.49;98.80;98894.58;109054;280;105155;-58
2023/12/12 00:03:15;;;;;;;20.00;14.60;;;;;;;5.52;98.78;98885.33;108844;280;156589;-58
2023/12/12 00:13:09;;;;;;;18.00;13.80;;;;;;;5.56;98.71;98894.89;108873;281;118015;31
2023/12/12 00:15:43;;;;;;;20.10;13.70;;;;;;;5.52;98.83;98896.00;108732;281;155356;-58
2023/12/12 00:18:16;;;;;;;19.40;13.70;;;;;;;5.54;98.79;98894.70;108870;281;115551;-58
2023/12/12 00:20:51;;;;;;;18.20;13.10;;;;;;;5.54;98.74;98900.72;108884;281;96909;-53
2023/12/12 00:26:47;;;;;;;18.50;14.60;;;;;;;5.58;98.63;98904.13;108847;280;117296;-58
2023/12/12 00:29:21;;;;;;;19.00;13.40;;;;;;;5.55;98.70;98906.17;108667;281;153919;-56
2023/12/12 00:31:55;;;;;;;18.50;14.00;;;;;;;5.55;98.60;98905.76;108861;281;112824;-56
2023/12/12 00:34:29;;;;;;;17.80;13.80;;;;;;;5.56;98.69;98911.16;108749;281;154712;-53
2023/12/12 00:40:53;;;;;;;16.80;12.90;;;;;;;5.62;98.54;98916.16;108897;279;118155;-56
2023/12/12 00:43:28;;;;;;;18.90;14.50;;;;;;;5.62;98.63;98917.89;108943;280;105613;-56
2023/12/12 00:49:29;;;;;;;18.30;13.30;;;;;;;5.60;98.57;98918.86;108869;279;94644;-56
2023/12/12 00:52:04;;;;;;;17.90;13.30;;;;;;;5.61;98.62;98923.11;108768;280;154380;-57
2023/12/12 00:54:36;;;;;;;;;;;;;;;5.66;98.56;98920.65;108877;281;118473;-57
2023/12/12 00:57:26;;;;;;;17.70;13.00;;;;;;;5.71;98.58;98917.33;108919;280;103526;-53
2023/12/12 01:00:00;;;;;;;18.90;13.80;;;;;;;5.71;98.44;98921.01;108922;274;113157;-53
2023/12/12 01:02:34;;;;;;;20.50;13.70;;;;;;;5.71;98.41;98921.95;108907;283;97451;-52
2023/12/12 01:05:24;;;;;;;17.90;13.70;;;;;;;5.72;98.45;98920.73;108617;283;154222;-52
2023/12/12 01:17:54;;;;;;;18.90;13.30;;;;;;;5.74;98.27;98934.42;109074;278;94583;-53
2023/12/12 01:20:28;;;;;;;19.00;13.30;;;;;;;5.75;98.33;98936.17;109114;278;96946;-53
2023/12/12 01:23:02;;;;;;;17.80;13.00;;;;;;;5.76;98.26;98940.96;108861;278;154446;-53
2023/12/12 01:25:36;;;;;;;16.40;13.20;;;;;;;5.71;98.26;98940.73;108903;280;104050;-53
2023/12/12 01:28:10;;;;;;;15.50;12.30;;;;;;;5.70;98.29;98945.94;108744;280;154806;-53
2023/12/12 01:30:44;;;;;;;16.60;12.80;;;;;;;5.70;98.26;98942.73;108896;280;96904;-53
2023/12/12 01:33:19;;;;;;;;;;;;;;;5.74;98.27;98945.52;108897;280;97566;-53
2023/12/12 01:35:53;;;;;;;17.50;12.90;;;;;;;5.74;98.29;98950.71;108941;280;118685;-53
2023/12/12 01:38:27;;;;;;;14.30;12.10;;;;;;;5.74;98.29;98951.34;108902;280;104914;-56
2023/12/12 01:41:01;;;;;;;21.80;13.50;;;;;;;5.75;98.24;98951.02;108698;280;155139;-56
2023/12/12 01:43:36;;;;;;;17.00;12.90;;;;;;;5.77;98.42;98959.55;108998;280;96970;-53
2023/12/12 01:49:33;;;;;;;18.50;13.60;;;;;;;5.80;98.12;98964.16;108858;279;119351;-57
2023/12/12 01:52:10;;;;;;;18.80;13.60;;;;;;;5.75;98.30;98964.89;108800;280;154563;-53
2023/12/12 01:54:49;;;;;;;18.40;12.40;;;;;;;5.75;98.31;98961.31;108898;281;114264;-53
2023/12/12 01:57:36;;;;;;;18.70;13.80;;;;;;;5.72;98.30;98960.17;108878;281;96233;-54
2023/12/12 02:00:14;;;;;;;16.00;12.30;;;;;;;5.73;98.33;98962.34;108868;280;98075;-54
2023/12/12 02:02:48;;;;;;;17.80;14.10;;;;;;;5.73;98.27;98966.86;108872;281;117442;-53
2023/12/12 02:05:23;;;;;;;16.50;13.60;;;;;;;5.74;98.33;98968.65;108765;281;154578;-54
2023/12/12 02:11:13;;;;;;;17.80;13.20;;;;;;;5.72;98.25;98979.02;108901;279;94545;-56
2023/12/12 02:13:48;;;;;;;16.10;12.60;;;;;;;5.71;98.30;98979.79;109012;279;97239;-54
2023/12/12 02:16:22;;;;;;;16.90;13.60;;;;;;;5.71;98.31;98980.70;109020;279;118616;-53
2023/12/12 02:18:56;;;;;;;19.70;14.00;;;;;;;5.72;98.39;98984.34;109054;280;104009;-53
2023/12/12 02:21:29;;;;;;;15.80;13.20;;;;;;;5.68;98.42;98984.17;109050;280;114944;-58
2023/12/12 02:24:13;;;;;;;18.60;13.90;;;;;;;5.71;98.39;98985.48;108755;280;155478;-54
2023/12/12 02:26:48;;;;;;;17.70;13.60;;;;;;;5.78;98.45;98984.05;108893;280;96754;-54
2023/12/12 02:29:22;;;;;;;21.80;14.60;;;;;;;5.76;98.27;98988.05;108742;280;155689;-58
2023/12/12 02:31:55;;;;;;;;;;;;;;;5.70;98.44;98987.73;108877;280;103315;-58
2023/12/12 02:34:29;;;;;;;19.00;13.30;;;;;;;5.65;98.54;98986.48;108815;279;141331;-54
2023/12/12 02:40:37;;;;;;;19.00;13.70;;;;;;;5.69;98.45;98987.67;108781;282;154742;-54
2023/12/12 02:43:12;;;;;;;20.00;14.10;;;;;;;5.67;98.56;98987.33;108893;279;118318;31
2023/12/12 02:49:09;;;;;;;23.80;14.70;;;;;;;5.65;98.81;98992.39;108898;278;113231;-56
2023/12/12 02:51:43;;;;;;;20.20;14.00;;;;;;;5.63;98.71;98988.99;108907;278;97147;-57
2023/12/12 02:54:17;;;;;;;25.40;15.60;;;;;;;5.64;98.71;98992.80;108877;280;98395;-56
2023/12/12 02:56:51;;;;;;;19.70;14.70;;;;;;;5.66;98.55;98993.14;108901;280;119121;-57
2023/12/12 02:59:26;;;;;;;20.00;15.30;;;;;;;5.65;98.64;98992.92;108832;280;154606;-57
2023/12/12 03:01:58;;;;;;;;;;;;;;;5.66;98.55;98993.34;108917;280;113836;-53
2023/12/12 03:04:32;;;;;;;20.50;15.00;;;;;;;5.64;98.68;99003.41;108727;280;141260;-54
2023/12/12 03:07:06;;;;;;;25.30;16.70;;;;;;;5.65;98.65;99007.48;108959;280;97167;-53
2023/12/12 03:09:41;;;;;;;21.80;14.60;;;;;;;5.69;98.54;99010.39;109018;280;120198;-57
2023/12/12 03:12:15;;;;;;;23.40;16.10;;;;;;;5.65;98.50;99014.15;108742;280;154330;-58
2023/12/12 03:14:49;;;;;;;26.50;17.40;;;;;;;5.66;98.57;99015.52;108880;280;114773;-53
2023/12/12 03:17:22;;;;;;;23.60;16.40;;;;;;;5.71;98.62;99021.04;108740;280;155473;-58
2023/12/12 03:19:56;;;;;;;25.50;17.10;;;;;;;5.71;98.61;99020.52;108914;280;97279;-56
2023/12/12 03:22:30;;;;;;;26.00;16.60;;;;;;;5.69;98.46;99022.68;108744;280;154539;-56
2023/12/12 03:28:37;;;;;;;29.00;18.10;;;;;;;5.71;98.49;99026.95;108506;280;154369;-56
2023/12/12 03:31:11;;;;;;;26.60;19.20;;;;;;;5.71;98.53;99028.67;108773;281;97397;-57
2023/12/12 03:33:46;;;;;;;26.70;18.00;;;;;;;5.77;98.45;99027.77;108351;281;723392;-57
2023/12/12 03:36:19;;;;;;;27.20;17.50;;;;;;;5.78;98.50;99032.78;108898;281;120618;-53
2023/12/12 03:38:53;;;;;;;27.70;17.60;;;;;;;5.80;98.41;99035.27;108919;281;105340;-53
2023/12/12 03:41:28;;;;;;;28.20;19.10;;;;;;;5.72;98.59;99035.16;108734;281;154464;-53
2023/12/12 03:44:02;;;;;;;25.70;18.50;;;;;;;5.74;98.54;99035.75;108869;281;96183;-53
2023/12/12 03:46:36;;;;;;;29.30;19.90;;;;;;;5.76;98.45;99034.36;108774;281;154672;-58
2023/12/12 03:49:10;;;;;;;28.50;18.30;;;;;;;5.78;98.59;99039.33;108880;281;118531;-58
2023/12/12 03:51:45;;;;;;;28.80;19.20;;;;;;;5.80;98.54;99046.92;108866;281;105884;-58
2023/12/12 03:58:11;;;;;;;29.20;19.00;;;;;;;5.82;98.52;99047.91;108724;279;154850;-54
2023/12/12 04:00:45;;;;;;;30.60;19.70;;;;;;;5.83;98.51;99050.45;108923;280;97346;-56
2023/12/12 04:03:19;;;;;;;28.30;17.90;;;;;;;5.81;98.35;99050.83;108944;280;118857;-56
2023/12/12 04:05:53;;;;;;;30.10;18.70;;;;;;;5.78;98.40;99053.23;108821;280;154587;-53
2023/12/12 04:08:27;;;;;;;28.70;19.10;;;;;;;5.77;98.51;99046.20;108936;280;113187;-53
2023/12/12 04:11:01;;;;;;;26.90;17.70;;;;;;;5.75;98.38;99046.30;108779;280;155313;-56
2023/12/12 04:13:39;;;;;;;31.30;20.20;;;;;;;5.69;98.38;99052.92;108924;280;98150;-56
2023/12/12 04:16:28;;;;;;;26.20;18.60;;;;;;;5.69;98.47;99058.45;108989;280;119338;-58
2023/12/12 04:19:03;;;;;;;29.30;18.80;;;;;;;5.70;98.47;99055.37;108720;282;106554;-58
2023/12/12 04:21:36;;;;;;;28.50;20.00;;;;;;;5.72;98.40;99054.89;108717;283;114207;-54
2023/12/12 04:24:11;;;;;;;27.50;18.80;;;;;;;5.75;98.51;99056.58;108596;283;155291;-53
2023/12/12 04:26:45;;;;;;;27.80;19.30;;;;;;;5.74;98.59;99061.63;108962;283;97240;-58
2023/12/12 04:29:19;;;;;;;28.00;19.30;;;;;;;5.76;98.58;99061.56;108666;283;154639;-58
2023/12/12 04:31:56;;;;;;;28.10;19.40;;;;;;;5.73;98.69;99062.74;108880;283;104472;-53
2023/12/12 04:34:33;;;;;;;24.90;18.60;;;;;;;5.74;98.46;99064.85;108756;283;154735;-53
2023/12/12 04:37:07;;;;;;;26.60;19.60;;;;;;;5.73;98.59;99067.36;108690;283;97491;-58
2023/12/12 04:39:42;;;;;;;23.60;17.80;;;;;;;5.78;98.62;99069.64;108738;283;95529;-58
2023/12/12 04:42:17;;;;;;;23.40;18.80;;;;;;;5.81;98.58;99072.84;108617;283;154260;-59
2023/12/12 04:44:51;;;;;;;23.10;16.60;;;;;;;5.81;98.46;99071.88;108948;283;105811;-54
2023/12/12 04:51:08;;;;;;;24.50;18.00;;;;;;;5.80;98.44;99072.79;108738;279;95441;-57
2023/12/12 04:53:42;;;;;;;22.00;16.60;;;;;;;5.78;98.52;99072.73;108616;283;154354;-53
2023/12/12 04:56:16;;;;;;;21.50;17.20;;;;;;;5.72;98.49;99078.23;108896;283;119805;-53
2023/12/12 04:58:50;;;;;;;23.30;17.20;;;;;;;5.68;98.40;99078.60;108728;283;154462;-53
2023/12/12 05:01:24;;;;;;;23.90;17.40;;;;;;;5.66;98.42;99079.15;108840;283;114657;-53
2023/12/12 05:03:59;;;;;;;22.70;17.20;;;;;;;5.67;98.57;99080.65;108867;283;154867;-53
2023/12/12 05:09:56;;;;;;;26.40;18.70;;;;;;;5.66;98.57;99091.32;108857;279;117926;-53
2023/12/12 05:12:30;;;;;;;25.90;19.30;;;;;;;5.67;98.66;99088.77;108867;281;105642;-54
2023/12/12 05:15:05;;;;;;;26.50;19.90;;;;;;;5.66;98.70;99095.80;108853;280;113454;-54
2023/12/12 05:17:39;;;;;;;27.90;19.00;;;;;;;5.68;98.64;99097.02;108728;280;154559;-58
2023/12/12 05:20:15;;;;;;;29.10;21.00;;;;;;;5.64;98.70;99106.29;108926;281;97764;-58
2023/12/12 05:22:49;;;;;;;30.30;21.00;;;;;;;5.70;98.78;99109.81;108721;281;154762;-57
2023/12/12 05:25:23;;;;;;;28.90;20.90;;;;;;;5.72;98.66;99111.73;108899;281;104851;-56
2023/12/12 05:27:57;;;;;;;30.30;21.70;;;;;;;5.71;98.67;99114.85;108844;281;112385;-57
2023/12/12 05:30:32;;;;;;;30.40;20.90;;;;;;;5.71;98.57;99118.11;108812;281;95982;-56
2023/12/12 05:33:06;;;;;;;30.30;20.90;;;;;;;5.70;98.75;99119.45;108875;281;97352;-59
2023/12/12 05:35:40;;;;;;;28.30;21.10;;;;;;;5.67;98.60;99124.50;108797;281;154460;-54
2023/12/12 05:38:13;;;;;;;26.40;18.70;;;;;;;5.64;98.69;99129.33;108896;281;106177;-53
2023/12/12 05:40:47;;;;;;;28.70;19.40;;;;;;;5.59;98.72;99132.36;108772;281;155382;-58
2023/12/12 05:43:22;;;;;;;28.70;20.60;;;;;;;5.60;98.86;99135.91;108885;281;97143;-59
2023/12/12 05:45:57;;;;;;;31.10;21.80;;;;;;;5.63;98.89;99138.20;108879;281;97604;-58
2023/12/12 05:51:46;;;;;;;;;;;;;;;5.61;98.83;99144.86;108835;279;102924;-58
2023/12/12 05:54:20;;;;;;;30.30;21.50;;;;;;;5.59;99.02;99149.89;108882;281;114555;-54
2023/12/12 05:56:54;;;;;;;29.30;20.80;;;;;;;5.59;98.93;99151.85;108873;281;97099;-54
2023/12/12 05:59:28;;;;;;;29.40;20.50;;;;;;;5.63;98.99;99157.34;108699;281;154415;-54
2023/12/12 06:02:03;;;;;;;27.40;19.20;;;;;;;5.64;99.00;99158.35;108872;281;117704;-54
2023/12/12 06:04:39;;;;;;;25.30;18.80;;;;;;;5.71;99.00;99163.07;108831;282;154306;-55
2023/12/12 06:10:40;;;;;;;29.00;20.60;;;;;;;5.68;98.86;99173.51;108781;279;155324;-54
2023/12/12 06:13:15;;;;;;;27.10;20.40;;;;;;;5.64;98.84;99175.40;108925;281;97318;-53
2023/12/12 06:15:50;;;;;;;26.30;19.00;;;;;;;5.60;98.91;99178.49;108898;279;119723;-57
2023/12/12 06:18:24;;;;;;;25.40;19.00;;;;;;;5.57;98.95;99186.61;108734;280;154124;-57
2023/12/12 06:20:57;;;;;;;24.80;18.50;;;;;;;5.57;98.97;99185.87;108869;280;113163;-58
2023/12/12 06:23:48;;;;;;;28.90;20.10;;;;;;;5.58;98.86;99187.02;108778;280;154600;-56
2023/12/12 06:29:46;;;;;;;26.60;19.20;;;;;;;5.53;98.80;99194.02;108923;279;117190;-53
2023/12/12 06:36:02;;;;;;;24.80;18.30;;;;;;;5.58;98.83;99194.86;108548;279;154151;-58
2023/12/12 06:38:37;;;;;;;24.80;17.90;;;;;;;5.59;98.80;99197.64;108894;282;95513;-57
2023/12/12 06:41:10;;;;;;;;;;;;;;;5.60;98.82;99203.05;108821;282;154485;-57
2023/12/12 06:43:45;;;;;;;26.20;19.80;;;;;;;5.59;98.96;99207.98;108869;282;119973;-60
2023/12/12 06:46:19;;;;;;;;;;;;;;;5.62;99.01;99214.54;108812;282;155970;-60
2023/12/12 06:48:52;;;;;;;31.60;20.90;;;;;;;5.68;98.93;99219.11;108793;282;114118;-55
2023/12/12 06:51:28;;;;;;;30.30;19.70;;;;;;;5.75;98.94;99215.77;108873;281;96749;-55
2023/12/12 06:54:03;;;;;;;30.90;21.00;;;;;;;5.76;98.80;99220.45;108820;283;155509;-58
2023/12/12 06:56:37;;;;;;;29.80;22.30;;;;;;;5.76;98.76;99222.17;108914;283;119145;-58
2023/12/12 06:59:11;;;;;;;28.20;20.20;;;;;;;5.71;98.77;99223.43;108803;283;154563;-58
2023/12/12 07:01:45;;;;;;;29.10;20.30;;;;;;;5.68;98.88;99223.48;108921;283;113587;-58
2023/12/12 07:04:19;;;;;;;28.80;19.20;;;;;;;5.67;98.92;99226.63;108791;283;154919;-59
2023/12/12 07:06:53;;;;;;;28.40;20.00;;;;;;;5.65;98.95;99225.62;108844;283;97797;-58
2023/12/12 07:09:27;;;;;;;28.60;20.00;;;;;;;5.67;98.95;99230.73;108932;283;118979;-54
2023/12/12 07:12:03;;;;;;;27.60;20.20;;;;;;;5.66;99.13;99233.05;108786;283;154706;-57
2023/12/12 07:14:38;;;;;;;30.60;21.30;;;;;;;5.61;98.91;99236.95;108927;283;114483;-57
2023/12/12 07:17:12;;;;;;;29.70;20.30;;;;;;;5.61;98.92;99235.52;108601;283;155418;-57
2023/12/12 07:19:46;;;;;;;28.30;20.90;;;;;;;5.61;99.13;99234.52;108890;283;96420;-53
2023/12/12 07:22:21;;;;;;;31.70;21.50;;;;;;;5.61;99.03;99230.60;108917;283;119356;-54
2023/12/12 07:24:54;;;;;;;30.30;21.20;;;;;;;5.62;99.29;99226.86;108953;283;106173;-53
2023/12/12 07:30:53;;;;;;;33.10;21.00;;;;;;;5.68;99.17;99238.47;108889;279;94786;-58
2023/12/12 07:33:27;;;;;;;30.20;20.20;;;;;;;5.68;99.10;99241.61;108857;281;97031;-59
2023/12/12 07:36:15;;;;;;;33.60;21.30;;;;;;;5.70;99.18;99250.04;108589;279;118825;-53
2023/12/12 07:38:49;;;;;;;29.80;20.50;;;;;;;5.72;99.20;99253.90;108888;273;104669;-53
2023/12/12 07:41:24;;;;;;;32.60;21.40;;;;;;;5.74;99.34;99260.02;108743;281;154538;-53
2023/12/12 07:44:00;;;;;;;29.60;21.00;;;;;;;5.76;99.30;99260.46;108920;281;94724;-53
2023/12/12 07:46:42;;;;;;;32.40;21.10;;;;;;;5.81;99.21;99265.60;108752;277;154632;-53
2023/12/12 07:49:16;;;;;;;34.90;21.90;;;;;;;5.81;99.22;99270.64;108917;281;119386;-56
2023/12/12 07:51:51;;;;;;;32.80;21.70;;;;;;;5.84;99.37;99269.86;108886;281;104434;-57
2023/12/12 07:54:25;;;;;;;35.30;22.20;;;;;;;5.89;99.29;99272.67;108745;281;154561;-56
2023/12/12 07:56:59;;;;;;;33.80;21.00;;;;;;;5.93;99.36;99270.58;108872;281;95666;-57
2023/12/12 07:59:33;;;;;;;37.90;22.80;;;;;;;5.93;99.34;99278.08;108777;281;154455;-54
2023/12/12 08:02:07;;;;;;;36.10;22.50;;;;;;;5.97;99.55;99278.62;108855;279;119949;-54
2023/12/12 08:04:41;;;;;;;35.10;21.90;;;;;;;6.04;99.46;99283.40;108790;281;155680;-58
2023/12/12 08:07:15;;;;;;;35.10;22.50;;;;;;;6.05;99.49;99287.21;108842;281;114724;-58
2023/12/12 08:09:50;;;;;;;35.10;22.70;;;;;;;6.07;99.40;99291.19;108870;281;95717;-58
2023/12/12 08:12:24;;;;;;;35.90;23.40;;;;;;;6.10;99.28;99294.42;108743;281;154307;-57
2023/12/12 08:14:58;;;;;;;36.50;23.30;;;;;;;6.13;99.36;99294.74;108868;281;119386;-52
2023/12/12 08:17:34;;;;;;;32.50;22.60;;;;;;;6.16;99.31;99300.23;108755;281;155090;-52
2023/12/12 08:20:11;;;;;;;37.60;24.20;;;;;;;6.15;99.24;99299.30;108905;281;114486;-56
2023/12/12 08:22:46;;;;;;;36.70;24.10;;;;;;;6.14;99.30;99301.10;108744;281;154848;-57
2023/12/12 08:25:21;;;;;;;36.10;23.60;;;;;;;6.15;99.39;99308.30;108862;281;96700;-52
2023/12/12 08:27:57;;;;;;;39.80;23.80;;;;;;;6.12;99.40;99313.59;108862;281;119650;-52
2023/12/12 08:30:31;;;;;;;39.60;23.20;;;;;;;6.19;99.56;99317.46;108693;281;156135;-53
2023/12/12 08:36:56;;;;;;;35.70;21.70;;;;;;;6.27;99.45;99326.77;108809;278;95804;-59
2023/12/12 08:42:57;;;;;;;31.70;20.50;;;;;;;6.26;99.63;99335.41;108651;279;154104;-58
2023/12/12 08:45:38;;;;;;;31.60;17.60;;;;;;;6.25;99.50;99338.94;108883;281;104884;-59
2023/12/12 08:48:12;;;;;;;25.90;16.00;;;;;;;6.24;99.67;99342.65;108685;277;154639;-58
2023/12/12 08:50:48;;;;;;;25.00;16.50;;;;;;;6.19;99.72;99346.23;108923;281;97093;-53
2023/12/12 08:53:26;;;;;;;24.70;16.70;;;;;;;6.13;99.85;99349.48;108747;281;155485;-53
2023/12/12 08:56:00;;;;;;;23.40;15.90;;;;;;;6.05;99.77;99350.77;108942;281;120204;-54
2023/12/12 08:58:34;;;;;;;26.50;17.00;;;;;;;5.98;99.91;99352.16;108876;277;106296;-54
2023/12/12 09:01:10;;;;;;;25.50;17.40;;;;;;;5.88;99.93;99354.26;108870;281;112759;-54
2023/12/12 09:03:44;;;;;;;26.40;18.00;;;;;;;5.86;99.95;99353.77;108910;281;96821;-57
2023/12/12 09:06:18;;;;;;;25.10;17.50;;;;;;;5.88;99.74;99354.75;108764;282;154276;-57
2023/12/12 09:08:52;;;;;;;27.40;18.90;;;;;;;5.84;99.59;99355.62;108868;280;119534;-53
2023/12/12 09:11:33;;;;;;;24.70;17.60;;;;;;;5.82;99.56;99355.58;108863;280;106456;-58
2023/12/12 09:14:07;;;;;;;24.60;17.10;;;;;;;5.80;99.70;99354.91;108846;281;114642;-58
2023/12/12 09:16:41;;;;;;;23.90;17.50;;;;;;;5.76;99.78;99356.73;108898;281;96220;-53
2023/12/12 09:19:16;;;;;;;27.10;17.90;;;;;;;5.81;99.89;99354.24;108586;282;154253;-53
2023/12/12 09:21:51;;;;;;;22.90;17.10;;;;;;;5.82;99.88;99359.92;108952;282;119504;-58
2023/12/12 09:24:23;;;;;;;;;;;;;;;5.80;99.90;99365.73;108953;282;105692;-58
2023/12/12 09:26:57;;;;;;;23.80;16.00;;;;;;;5.80;99.95;99365.90;108935;282;114127;-58
2023/12/12 09:29:31;;;;;;;22.50;15.80;;;;;;;5.82;99.75;99373.27;108616;283;154782;-58
2023/12/12 09:32:07;;;;;;;20.60;14.20;;;;;;;5.79;99.70;99373.89;108809;283;98317;-53
2023/12/12 09:34:41;;;;;;;17.90;13.60;;;;;;;5.77;99.63;99379.70;108937;283;119395;-53
2023/12/12 09:37:16;;;;;;;20.80;13.90;;;;;;;5.67;99.79;99385.20;108670;281;154404;-57
2023/12/12 09:39:49;;;;;;;16.90;11.80;;;;;;;5.58;99.57;99392.06;108830;281;113571;-57
2023/12/12 09:42:27;;;;;;;17.50;11.90;;;;;;;5.49;99.45;99400.48;108890;281;95763;-58
2023/12/12 09:45:04;;;;;;;15.80;11.80;;;;;;;5.36;99.29;99403.86;108905;281;96535;-59
2023/12/12 09:47:40;;;;;;;17.30;12.40;;;;;;;5.25;99.40;99406.64;108739;281;155422;-59
2023/12/12 09:50:15;;;;;;;16.60;11.70;;;;;;;5.25;99.06;99409.85;108911;282;105018;-58
2023/12/12 09:52:51;;;;;;;16.20;11.70;;;;;;;5.22;99.13;99416.50;108948;282;113460;-58
2023/12/12 09:55:28;;;;;;;15.40;11.20;;;;;;;5.09;98.90;99427.61;108970;282;97521;-58
2023/12/12 09:58:02;;;;;;;15.10;10.30;;;;;;;5.02;98.91;99429.73;108969;282;95755;-55
2023/12/12 10:00:35;;;;;;;;;;;;;;;4.96;99.01;99428.87;108760;282;154962;-57
2023/12/12 10:03:10;;;;;;;12.00;8.20;;;;;;;4.85;99.11;99434.35;108927;282;104661;-59
2023/12/12 10:05:52;;;;;;;12.80;8.60;;;;;;;4.87;99.08;99437.25;108591;283;154461;-59
2023/12/12 10:08:27;;;;;;;12.70;9.20;;;;;;;4.88;98.93;99439.89;108818;281;95887;-59
2023/12/12 10:11:01;;;;;;;11.90;8.80;;;;;;;4.90;98.98;99439.91;108927;281;97562;-54
2023/12/12 10:13:50;;;;;;;;;;;;;;;4.91;99.08;99450.61;108725;283;118975;-54
2023/12/12 10:16:25;;;;;;;12.40;9.00;;;;;;;4.88;99.05;99453.33;108908;283;106418;-54
2023/12/12 10:19:02;;;;;;;11.40;8.40;;;;;;;4.85;99.08;99459.53;108646;283;155137;-54
2023/12/12 10:21:37;;;;;;;11.50;8.50;;;;;;;4.85;98.95;99465.30;108912;283;96912;-53
2023/12/12 10:24:11;;;;;;;13.00;9.70;;;;;;;4.83;98.81;99462.23;108767;283;154355;-53
2023/12/12 10:26:49;;;;;;;12.50;9.50;;;;;;;4.80;98.79;99460.60;108903;282;119748;-58
2023/12/12 10:29:26;;;;;;;14.40;9.30;;;;;;;4.79;98.79;99464.68;108602;282;156550;-58
2023/12/12 10:32:03;;;;;;;13.60;8.90;;;;;;;4.80;98.71;99462.20;108782;282;113344;-57
2023/12/12 10:34:37;;;;;;;12.60;8.50;;;;;;;4.80;98.96;99464.75;108970;282;96197;-56
2023/12/12 10:37:11;;;;;;;14.30;9.50;;;;;;;4.79;99.14;99468.40;108633;282;154347;-53
2023/12/12 10:39:45;;;;;;;17.20;10.90;;;;;;;4.78;99.12;99466.77;108933;282;118340;-53
2023/12/12 10:42:19;;;;;;;17.10;12.10;;;;;;;4.71;99.10;99463.86;108748;282;155723;-58
2023/12/12 10:45:02;;;;;;;16.20;11.80;;;;;;;4.67;99.01;99468.02;108861;282;114341;-58
2023/12/12 10:47:39;;;;;;;16.90;11.70;;;;;;;4.63;99.15;99470.78;108781;282;154707;-53
2023/12/12 10:50:15;;;;;;;17.50;12.30;;;;;;;4.65;99.15;99474.20;108840;282;97928;-53
2023/12/12 10:52:51;;;;;;;20.20;13.10;;;;;;;4.65;98.98;99481.10;108959;282;118740;-53
2023/12/12 10:55:27;;;;;;;16.80;12.50;;;;;;;4.58;98.89;99493.17;108606;282;155663;-53
2023/12/12 10:58:11;;;;;;;20.20;13.30;;;;;;;4.49;98.87;99495.45;108714;283;114411;-56
2023/12/12 11:00:46;;;;;;;20.00;13.20;;;;;;;4.52;98.73;99499.41;108692;281;154220;-57
2023/12/12 11:03:21;;;;;;;21.80;13.10;;;;;;;4.57;98.61;99496.48;108940;282;97043;-59
2023/12/12 11:06:05;;;;;;;21.00;14.00;;;;;;;4.61;98.53;99500.67;108793;282;155483;-55
2023/12/12 11:08:42;;;;;;;21.10;13.50;;;;;;;4.53;98.49;99510.14;108915;279;105433;-54
2023/12/12 11:11:20;;;;;;;20.90;13.60;;;;;;;4.49;98.47;99513.27;108838;282;154332;-54
2023/12/12 11:13:54;;;;;;;18.70;12.30;;;;;;;4.42;98.51;99518.16;108876;281;97025;-54
2023/12/12 11:16:28;;;;;;;;;;;;;;;4.42;98.34;99522.03;108857;281;98713;-58
2023/12/12 11:19:03;;;;;;;18.80;11.90;;;;;;;4.44;98.44;99522.41;108768;281;140973;-59
2023/12/12 11:21:49;;;;;;;16.20;10.60;;;;;;;4.42;98.26;99529.17;108967;282;104211;-53
2023/12/12 11:24:43;;;;;;;15.30;10.90;;;;;;;4.41;98.31;99535.23;108756;282;154718;-54
2023/12/12 11:30:55;;;;;;;14.50;9.60;;;;;;;4.53;98.30;99529.06;108667;279;153791;-54
2023/12/12 11:34:06;;;;;;;12.40;9.00;;;;;;;4.57;98.15;99525.37;104959;279;5004096;-54
2023/12/12 11:36:57;;;;;;;12.40;9.50;;;;;;;4.62;98.20;99528.77;108697;280;154243;-54
2023/12/12 11:39:49;;;;;;;13.20;9.70;;;;;;;4.67;98.06;99534.52;108890;281;95148;-54
2023/12/12 11:42:24;;;;;;;13.10;9.20;;;;;;;4.68;97.88;99543.45;108729;281;154968;-58
2023/12/12 11:44:59;;;;;;;14.10;10.10;;;;;;;4.65;98.06;99548.64;108872;281;119621;-58
2023/12/12 11:47:34;;;;;;;14.30;10.10;;;;;;;4.61;97.94;99560.00;108752;281;154760;-60
2023/12/12 11:50:37;;;;;;;14.60;10.50;;;;;;;4.57;97.73;99562.95;108784;281;114289;-59
2023/12/12 11:53:11;;;;;;;15.20;11.70;;;;;;;4.58;97.67;99564.95;108774;281;153997;-60
2023/12/12 11:55:45;;;;;;;14.50;10.90;;;;;;;4.50;97.55;99567.84;108776;281;98066;-59
2023/12/12 11:58:23;;;;;;;16.60;11.10;;;;;;;4.43;97.49;99569.58;108886;281;119118;-54
2023/12/12 12:00:57;;;;;;;15.00;11.10;;;;;;;4.39;97.52;99574.99;108674;281;154397;-54
2023/12/12 12:03:31;;;;;;;15.70;10.50;;;;;;;4.34;97.44;99582.15;108819;281;112337;-54
2023/12/12 12:06:06;;;;;;;17.20;10.90;;;;;;;4.36;97.39;99585.83;108720;281;154749;-55
2023/12/12 12:08:40;;;;;;;17.50;11.30;;;;;;;4.40;97.55;99582.04;108815;281;96655;-59
2023/12/12 12:11:14;;;;;;;14.40;10.30;;;;;;;4.41;97.43;99586.31;108766;281;155119;-54
2023/12/12 12:13:48;;;;;;;18.50;12.10;;;;;;;4.50;97.34;99584.14;108777;281;105771;-54
2023/12/12 12:16:22;;;;;;;16.90;11.20;;;;;;;4.53;97.29;99577.37;108898;281;113564;-59
2023/12/12 12:18:56;;;;;;;19.90;12.50;;;;;;;4.55;97.33;99579.04;108759;281;155309;-59
2023/12/12 12:25:13;;;;;;;17.80;12.10;;;;;;;4.53;97.30;99582.22;108833;279;117938;-54
2023/12/12 12:27:55;;;;;;;18.10;12.30;;;;;;;4.55;97.28;99583.12;108860;280;104039;-54
2023/12/12 12:30:29;;;;;;;20.00;13.00;;;;;;;4.63;97.16;99582.23;108741;280;154672;-54
2023/12/12 12:33:06;;;;;;;18.60;12.20;;;;;;;4.68;97.26;99578.30;108849;281;96925;-54
2023/12/12 12:35:52;;;;;;;18.30;12.80;;;;;;;4.71;97.23;99577.26;108732;281;155542;-54
2023/12/12 12:38:29;;;;;;;;;;;;;;;4.70;97.33;99577.02;108763;278;118307;-58
2023/12/12 12:41:03;;;;;;;18.60;12.40;;;;;;;4.66;97.44;99576.52;108883;281;104439;-58
2023/12/12 12:43:37;;;;;;;16.80;12.30;;;;;;;4.71;97.30;99575.48;108796;281;155004;-58
2023/12/12 12:46:12;;;;;;;19.00;12.40;;;;;;;4.70;97.46;99580.79;108866;282;96387;-58
2023/12/12 12:48:46;;;;;;;16.50;11.70;;;;;;;4.68;97.55;99587.59;108779;282;155563;-54
2023/12/12 12:51:20;;;;;;;17.00;11.80;;;;;;;4.68;97.50;99592.40;108905;282;118129;-54
2023/12/12 12:53:54;;;;;;;17.50;12.10;;;;;;;4.69;97.33;99596.92;108781;282;153911;-59
2023/12/12 12:56:29;;;;;;;18.90;14.50;;;;;;;4.67;97.46;99600.30;108868;282;113792;-59
2023/12/12 12:59:03;;;;;;;21.70;13.50;;;;;;;4.64;97.42;99599.56;108824;282;94766;-54
2023/12/12 13:01:40;;;;;;;19.30;12.70;;;;;;;4.57;97.52;99599.32;108667;282;153984;-58
2023/12/12 13:04:15;;;;;;;20.10;13.00;;;;;;;4.59;97.39;99602.50;108857;282;119671;-57
2023/12/12 13:06:48;;;;;;;19.60;13.40;;;;;;;4.61;97.27;99604.60;108781;282;154508;-59
2023/12/12 13:09:23;;;;;;;22.00;13.80;;;;;;;4.59;97.24;99609.28;108889;281;114096;-59
2023/12/12 13:12:03;;;;;;;20.80;13.30;;;;;;;4.54;97.33;99611.26;108858;281;97061;-54
2023/12/12 13:14:38;;;;;;;21.60;13.40;;;;;;;4.56;97.28;99615.14;108974;279;97045;-54
2023/12/12 13:17:11;;;;;;;23.50;14.80;;;;;;;4.57;97.24;99617.75;108906;279;118706;-59
2023/12/12 13:19:45;;;;;;;23.90;15.30;;;;;;;4.55;97.36;99619.56;108408;280;154940;-59
2023/12/12 13:22:19;;;;;;;23.30;14.00;;;;;;;4.60;97.18;99624.86;108743;283;115146;-54
2023/12/12 13:24:54;;;;;;;20.50;13.80;;;;;;;4.64;96.99;99624.55;108591;283;154572;-54
2023/12/12 13:27:28;;;;;;;24.20;15.20;;;;;;;4.66;96.85;99627.92;108739;284;98933;-54
2023/12/12 13:30:05;;;;;;;24.90;14.50;;;;;;;4.66;96.88;99628.70;108580;284;155835;-54